^^
Meteo Knjazevac Station Historical Data
Daily Summary for September 29, 2021 Units:  Metric    English   Both
Daily Weekly Monthly Yearly Custom
  High: Low: Average:
Temperature: 16.1 °C 12.1 °C 14.2 °C
Dew Point: 15.1 °C 10.8 °C 12.3 °C
Humidity: 95% 80% 89%
Wind Speed: 16.1km/h 0km/h 7.4km/h
Wind Gust: 32.2km/h - -
Wind- - SSW
Pressure: 1025.6 hPa 1022.6 hPa -
Precipitation: 0 mm    
Historical Graphs
 
 
Tabular Data for September 29, 2021
Time Temperature Dew Point Pressure Wind Wind Speed Wind Gust Humidity Rainfall Rate (Hourly) solar Conditions
00:00 16.1 °C 14.9 °C 1022.6 hPa North 1.6 km/h 4.8 km/h 93% 0 mm 0 W/m2
00:10 16.1 °C 15.1 °C 1022.6 hPa Calm   4.8 km/h 94% 0 mm 0 W/m2
00:20 16.1 °C 15.1 °C 1022.6 hPa Calm   3.2 km/h 94% 0 mm 0 W/m2
00:30 16.1 °C 15.1 °C 1022.6 hPa NE 3.2 km/h 6.4 km/h 94% 0 mm 0 W/m2
00:40 16.1 °C 15.1 °C 1022.6 hPa NNE 3.2 km/h 6.4 km/h 94% 0 mm 0 W/m2
00:50 16 °C 15.1 °C 1022.6 hPa NNE 1.6 km/h 6.4 km/h 94% 0 mm 0 W/m2
01:00 16 °C 15.1 °C 1022.6 hPa NNE 1.6 km/h 6.4 km/h 94% 0 mm 0 W/m2
01:10 16 °C 15.1 °C 1022.6 hPa NNW 1.6 km/h 4.8 km/h 94% 0 mm 0 W/m2
01:20 15.9 °C 14.9 °C 1022.6 hPa NW 1.6 km/h 4.8 km/h 94% 0 mm 0 W/m2
01:30 15.9 °C 14.9 °C 1022.6 hPa Calm   3.2 km/h 94% 0 mm 0 W/m2
01:40 15.8 °C 15 °C 1022.6 hPa Calm   1.6 km/h 95% 0 mm 0 W/m2
01:50 15.8 °C 15 °C 1022.6 hPa Calm   1.6 km/h 95% 0 mm 0 W/m2
02:00 15.8 °C 15 °C 1022.9 hPa Calm   3.2 km/h 95% 0 mm 0 W/m2
02:10 15.8 °C 15 °C 1022.9 hPa NNE 1.6 km/h 4.8 km/h 95% 0 mm 0 W/m2
02:20 15.7 °C 14.9 °C 1022.9 hPa NNE 4.8 km/h 6.4 km/h 95% 0 mm 0 W/m2
02:30 15.7 °C 14.7 °C 1022.9 hPa NNE 1.6 km/h 6.4 km/h 94% 0 mm 0 W/m2
02:40 15.6 °C 14.6 °C 1022.9 hPa NNE 3.2 km/h 8 km/h 94% 0 mm 0 W/m2
02:50 15.5 °C 14.6 °C 1022.9 hPa Calm   6.4 km/h 94% 0 mm 0 W/m2
03:00 15.4 °C 14.6 °C 1022.6 hPa NNE 1.6 km/h 4.8 km/h 95% 0 mm 0 W/m2
03:10 15.4 °C 14.6 °C 1022.6 hPa Calm   8 km/h 95% 0 mm 0 W/m2
03:20 15.3 °C 14.5 °C 1022.6 hPa Calm   3.2 km/h 95% 0 mm 0 W/m2
03:30 15.3 °C 14.5 °C 1022.6 hPa North 3.2 km/h 9.7 km/h 95% 0 mm 0 W/m2
03:40 15.3 °C 14.3 °C 1022.6 hPa North 4.8 km/h 11.3 km/h 94% 0 mm 0 W/m2
03:50 15.2 °C 14.2 °C 1022.6 hPa North 3.2 km/h 12.9 km/h 94% 0 mm 0 W/m2
04:00 15.2 °C 14.1 °C 1022.6 hPa North 8 km/h 19.3 km/h 93% 0 mm 0 W/m2
04:10 15.1 °C 13.9 °C 1022.9 hPa North 8 km/h 16.1 km/h 93% 0 mm 0 W/m2
04:20 15 °C 13.6 °C 1022.9 hPa North 8 km/h 16.1 km/h 91% 0 mm 0 W/m2
04:30 14.9 °C 13.5 °C 1022.9 hPa North 8 km/h 16.1 km/h 91% 0 mm 0 W/m2
04:40 14.9 °C 13.2 °C 1022.9 hPa North 3.2 km/h 16.1 km/h 90% 0 mm 0 W/m2
04:50 14.8 °C 13.2 °C 1022.9 hPa North 9.7 km/h 19.3 km/h 90% 0 mm 0 W/m2
05:00 14.6 °C 13 °C 1022.9 hPa North 9.7 km/h 19.3 km/h 90% 0 mm 0 W/m2
05:10 14.5 °C 12.9 °C 1022.9 hPa North 9.7 km/h 17.7 km/h 90% 0 mm 0 W/m2
05:20 14.4 °C 12.7 °C 1022.9 hPa North 11.3 km/h 22.5 km/h 90% 0 mm 0 W/m2
05:30 14.2 °C 12.6 °C 1023.2 hPa North 8 km/h 19.3 km/h 90% 0 mm 0 W/m2
05:40 14.1 °C 12.5 °C 1023.2 hPa North 11.3 km/h 20.9 km/h 90% 0 mm 0 W/m2
05:50 13.9 °C 12.3 °C 1023.2 hPa North 8 km/h 19.3 km/h 90% 0 mm 0 W/m2
06:00 13.8 °C 12.2 °C 1023.2 hPa North 8 km/h 19.3 km/h 90% 0 mm 0 W/m2
06:10 13.7 °C 12.1 °C 1023.2 hPa NNW 8 km/h 17.7 km/h 90% 0 mm 0 W/m2
06:20 13.6 °C 12 °C 1023.2 hPa North 8 km/h 16.1 km/h 90% 0 mm 0 W/m2
06:30 13.5 °C 12.1 °C 1023.6 hPa NNW 4.8 km/h 17.7 km/h 91% 0 mm 0 W/m2
06:40 13.4 °C 11.9 °C 1023.6 hPa North 1.6 km/h 11.3 km/h 91% 0 mm 2 W/m2
06:50 13.2 °C 11.8 °C 1023.9 hPa NNW 3.2 km/h 11.3 km/h 91% 0 mm 3 W/m2
07:00 13.2 °C 11.8 °C 1023.9 hPa NNW 4.8 km/h 11.3 km/h 91% 0 mm 5 W/m2
07:10 13.1 °C 11.7 °C 1023.9 hPa North 8 km/h 14.5 km/h 91% 0 mm 7 W/m2
07:20 13.1 °C 11.7 °C 1023.9 hPa North 8 km/h 14.5 km/h 91% 0 mm 9 W/m2
07:30 13 °C 11.6 °C 1024.3 hPa North 3.2 km/h 19.3 km/h 91% 0 mm 12 W/m2
07:40 13 °C 11.6 °C 1024.3 hPa North 3.2 km/h 12.9 km/h 91% 0 mm 13 W/m2
07:50 13 °C 11.6 °C 1024.3 hPa NNW 4.8 km/h 11.3 km/h 91% 0 mm 14 W/m2
08:00 12.9 °C 11.4 °C 1024.3 hPa NNW 4.8 km/h 9.7 km/h 91% 0 mm 16 W/m2
08:10 12.9 °C 11.8 °C 1024.6 hPa NW 4.8 km/h 11.3 km/h 93% 0 mm 45 W/m2
08:20 12.9 °C 11.8 °C 1024.3 hPa NNW 8 km/h 12.9 km/h 93% 0 mm 101 W/m2
08:30 13.1 °C 11.7 °C 1024.6 hPa NNW 3.2 km/h 9.7 km/h 91% 0 mm 93 W/m2
08:40 13.2 °C 11.8 °C 1024.6 hPa NNW 3.2 km/h 8 km/h 91% 0 mm 89 W/m2
08:50 13.3 °C 11.9 °C 1024.6 hPa North 3.2 km/h 14.5 km/h 91% 0 mm 122 W/m2
09:00 13.5 °C 11.9 °C 1024.6 hPa NNW 4.8 km/h 11.3 km/h 90% 0 mm 100 W/m2
09:10 13.5 °C 11.9 °C 1024.6 hPa North 4.8 km/h 16.1 km/h 90% 0 mm 98 W/m2
09:20 13.6 °C 11.9 °C 1024.6 hPa NNW 4.8 km/h 12.9 km/h 90% 0 mm 93 W/m2
09:30 13.6 °C 11.8 °C 1024.6 hPa NNW 8 km/h 16.1 km/h 89% 0 mm 123 W/m2
09:40 13.8 °C 12 °C 1024.9 hPa North 4.8 km/h 12.9 km/h 89% 0 mm 213 W/m2
09:50 14.1 °C 12.1 °C 1024.6 hPa North 4.8 km/h 16.1 km/h 88% 0 mm 258 W/m2
10:00 14.3 °C 12.4 °C 1024.9 hPa North 4.8 km/h 19.3 km/h 88% 0 mm 321 W/m2
10:10 14.7 °C 12.4 °C 1024.9 hPa North 8 km/h 24.1 km/h 86% 0 mm 350 W/m2
10:20 15.1 °C 12.6 °C 1024.9 hPa North 12.9 km/h 24.1 km/h 85% 0 mm 496 W/m2
10:30 15.6 °C 12.9 °C 1024.9 hPa North 11.3 km/h 22.5 km/h 84% 0 mm 594 W/m2
10:40 15.6 °C 12.7 °C 1024.9 hPa North 8 km/h 27.4 km/h 83% 0 mm 217 W/m2
10:50 15.3 °C 12.4 °C 1024.9 hPa North 11.3 km/h 24.1 km/h 83% 0 mm 209 W/m2
11:00 15.2 °C 12.3 °C 1024.9 hPa North 11.3 km/h 22.5 km/h 83% 0 mm 263 W/m2
11:10 15.2 °C 12.3 °C 1024.9 hPa North 4.8 km/h 20.9 km/h 83% 0 mm 212 W/m2
11:20 15 °C 12.1 °C 1024.9 hPa North 4.8 km/h 22.5 km/h 83% 0 mm 214 W/m2
11:30 15 °C 12.3 °C 1024.9 hPa North 4.8 km/h 20.9 km/h 84% 0 mm 229 W/m2
11:40 15 °C 12.3 °C 1024.9 hPa North 8 km/h 20.9 km/h 84% 0 mm 297 W/m2
11:50 15.3 °C 12.6 °C 1024.9 hPa North 8 km/h 20.9 km/h 84% 0 mm 368 W/m2
12:00 15.5 °C 12.6 °C 1024.9 hPa North 9.7 km/h 20.9 km/h 83% 0 mm 386 W/m2
12:10 15.6 °C 12.6 °C 1024.9 hPa North 11.3 km/h 19.3 km/h 82% 0 mm 258 W/m2
12:20 15.5 °C 12.3 °C 1024.9 hPa North 9.7 km/h 20.9 km/h 81% 0 mm 322 W/m2
12:30 15.4 °C 12.2 °C 1024.9 hPa North 11.3 km/h 22.5 km/h 81% 0 mm 257 W/m2
12:40 15.2 °C 12.3 °C 1024.9 hPa North 8 km/h 24.1 km/h 83% 0 mm 336 W/m2
12:50 15.2 °C 12.3 °C 1024.9 hPa North 11.3 km/h 22.5 km/h 83% 0 mm 274 W/m2
13:00 15.2 °C 12.3 °C 1024.9 hPa North 9.7 km/h 32.2 km/h 83% 0 mm 269 W/m2
13:10 15.2 °C 12.3 °C 1024.9 hPa North 12.9 km/h 22.5 km/h 83% 0 mm 299 W/m2
13:20 15.2 °C 12.3 °C 1024.6 hPa North 8 km/h 22.5 km/h 83% 0 mm 239 W/m2
13:30 15.1 °C 12.2 °C 1024.6 hPa North 11.3 km/h 27.4 km/h 83% 0 mm 266 W/m2
13:40 15.2 °C 12.3 °C 1024.6 hPa North 9.7 km/h 25.7 km/h 83% 0 mm 259 W/m2
13:50 15.2 °C 12.3 °C 1024.6 hPa North 9.7 km/h 25.7 km/h 83% 0 mm 300 W/m2
14:00 15.2 °C 12.3 °C 1024.6 hPa North 11.3 km/h 27.4 km/h 83% 0 mm 319 W/m2
14:10 15.2 °C 12.2 °C 1024.6 hPa North 9.7 km/h 27.4 km/h 82% 0 mm 323 W/m2
14:20 15.3 °C 12.1 °C 1024.6 hPa North 12.9 km/h 27.4 km/h 81% 0 mm 349 W/m2
14:30 15.4 °C 12.2 °C 1024.6 hPa North 9.7 km/h 25.7 km/h 81% 0 mm 293 W/m2
14:40 15.3 °C 12.1 °C 1024.6 hPa North 9.7 km/h 29 km/h 81% 0 mm 470 W/m2
14:50 15.2 °C 12 °C 1024.3 hPa North 11.3 km/h 27.4 km/h 81% 0 mm 357 W/m2
15:00 15.2 °C 11.9 °C 1024.3 hPa North 12.9 km/h 22.5 km/h 81% 0 mm 487 W/m2
15:10 15.3 °C 11.9 °C 1024.3 hPa North 14.5 km/h 24.1 km/h 80% 0 mm 464 W/m2
15:20 15.3 °C 11.9 °C 1024.3 hPa North 11.3 km/h 25.7 km/h 80% 0 mm 422 W/m2
15:30 15.3 °C 11.9 °C 1024.3 hPa North 12.9 km/h 29 km/h 80% 0 mm 413 W/m2
15:40 15.2 °C 11.8 °C 1024.3 hPa North 16.1 km/h 32.2 km/h 80% 0 mm 387 W/m2
15:50 15.2 °C 12 °C 1024.3 hPa North 11.3 km/h 25.7 km/h 81% 0 mm 359 W/m2
16:00 15.1 °C 11.6 °C 1024.3 hPa North 12.9 km/h 27.4 km/h 80% 0 mm 154 W/m2
16:10 14.8 °C 11.6 °C 1024.3 hPa North 11.3 km/h 27.4 km/h 81% 0 mm 237 W/m2
16:20 14.7 °C 11.8 °C 1024.3 hPa North 11.3 km/h 27.4 km/h 83% 0 mm 190 W/m2
16:30 14.5 °C 11.7 °C 1024.3 hPa North 12.9 km/h 32.2 km/h 83% 0 mm 137 W/m2
16:40 14.3 °C 11.6 °C 1024.3 hPa North 12.9 km/h 25.7 km/h 84% 0 mm 129 W/m2
16:50 14.2 °C 11.6 °C 1024.3 hPa North 14.5 km/h 24.1 km/h 84% 0 mm 84 W/m2
17:00 13.9 °C 11.3 °C 1024.3 hPa North 11.3 km/h 24.1 km/h 84% 0 mm 68 W/m2
17:10 13.8 °C 11.3 °C 1024.3 hPa North 11.3 km/h 29 km/h 85% 0 mm 48 W/m2
17:20 13.7 °C 11.2 °C 1024.6 hPa North 9.7 km/h 24.1 km/h 85% 0 mm 35 W/m2
17:30 13.5 °C 11 °C 1024.6 hPa North 9.7 km/h 24.1 km/h 85% 0 mm 26 W/m2
17:40 13.3 °C 11 °C 1024.6 hPa North 8 km/h 25.7 km/h 86% 0 mm 25 W/m2
17:50 13.2 °C 10.9 °C 1024.6 hPa North 11.3 km/h 27.4 km/h 86% 0 mm 20 W/m2
18:00 13.1 °C 10.8 °C 1024.6 hPa North 8 km/h 22.5 km/h 86% 0 mm 10 W/m2
18:10 12.9 °C 10.9 °C 1024.6 hPa North 8 km/h 22.5 km/h 88% 0 mm 5 W/m2
18:20 12.8 °C 10.8 °C 1024.6 hPa North 11.3 km/h 22.5 km/h 88% 0 mm 0 W/m2
18:30 12.7 °C 10.8 °C 1024.6 hPa North 9.7 km/h 20.9 km/h 88% 0 mm 0 W/m2
18:40 12.6 °C 10.8 °C 1024.6 hPa North 11.3 km/h 20.9 km/h 89% 0 mm 0 W/m2
18:50 12.7 °C 10.9 °C 1024.6 hPa North 9.7 km/h 20.9 km/h 89% 0 mm 0 W/m2
19:00 12.7 °C 10.9 °C 1024.6 hPa North 9.7 km/h 20.9 km/h 89% 0 mm 0 W/m2
19:10 12.7 °C 10.9 °C 1024.6 hPa North 11.3 km/h 22.5 km/h 89% 0 mm 0 W/m2
19:20 12.7 °C 10.9 °C 1024.9 hPa North 9.7 km/h 19.3 km/h 89% 0 mm 0 W/m2
19:30 12.7 °C 10.9 °C 1024.9 hPa North 9.7 km/h 20.9 km/h 89% 0 mm 0 W/m2
19:40 12.7 °C 10.9 °C 1024.9 hPa North 4.8 km/h 19.3 km/h 89% 0 mm 0 W/m2
19:50 12.7 °C 10.9 °C 1024.9 hPa North 8 km/h 17.7 km/h 89% 0 mm 0 W/m2
20:00 12.7 °C 10.9 °C 1024.9 hPa North 8 km/h 19.3 km/h 89% 0 mm 0 W/m2
20:10 12.7 °C 10.9 °C 1025.3 hPa North 8 km/h 14.5 km/h 89% 0 mm 0 W/m2
20:20 12.7 °C 10.9 °C 1025.3 hPa North 8 km/h 17.7 km/h 89% 0 mm 0 W/m2
20:30 12.7 °C 10.9 °C 1025.3 hPa North 3.2 km/h 19.3 km/h 89% 0 mm 0 W/m2
20:40 12.7 °C 10.9 °C 1025.3 hPa North 8 km/h 19.3 km/h 89% 0 mm 0 W/m2
20:50 12.8 °C 11.1 °C 1025.3 hPa North 11.3 km/h 19.3 km/h 89% 0 mm 0 W/m2
21:00 12.8 °C 11.1 °C 1025.3 hPa North 9.7 km/h 20.9 km/h 89% 0 mm 0 W/m2
21:10 12.8 °C 11.1 °C 1025.3 hPa North 11.3 km/h 19.3 km/h 89% 0 mm 0 W/m2
21:20 12.7 °C 10.9 °C 1025.3 hPa North 8 km/h 14.5 km/h 89% 0 mm 0 W/m2
21:30 12.7 °C 10.9 °C 1025.3 hPa North 8 km/h 16.1 km/h 89% 0 mm 0 W/m2
21:40 12.6 °C 11 °C 1025.3 hPa North 8 km/h 14.5 km/h 90% 0 mm 0 W/m2
21:50 12.6 °C 11 °C 1025.3 hPa North 11.3 km/h 16.1 km/h 90% 0 mm 0 W/m2
22:00 12.5 °C 10.9 °C 1025.3 hPa North 8 km/h 20.9 km/h 90% 0 mm 0 W/m2
22:10 12.4 °C 10.8 °C 1025.3 hPa North 8 km/h 19.3 km/h 90% 0 mm 0 W/m2
22:20 12.4 °C 10.9 °C 1025.3 hPa North 11.3 km/h 16.1 km/h 91% 0 mm 0 W/m2
22:30 12.3 °C 10.9 °C 1025.3 hPa North 8 km/h 16.1 km/h 91% 0 mm 0 W/m2
22:40 12.2 °C 10.8 °C 1025.3 hPa North 4.8 km/h 16.1 km/h 91% 0 mm 0 W/m2
22:50 12.2 °C 10.8 °C 1025.3 hPa North 8 km/h 17.7 km/h 91% 0 mm 0 W/m2
23:00 12.1 °C 11 °C 1025.3 hPa North 8 km/h 16.1 km/h 93% 0 mm 0 W/m2
23:10 12.1 °C 11 °C 1025.6 hPa North 8 km/h 14.5 km/h 93% 0 mm 0 W/m2
23:20 12.1 °C 11 °C 1025.6 hPa North 4.8 km/h 14.5 km/h 93% 0 mm 0 W/m2
23:30 12.1 °C 11 °C 1025.6 hPa North 8 km/h 14.5 km/h 93% 0 mm 0 W/m2
23:40 12.1 °C 11 °C 1025.6 hPa North 4.8 km/h 20.9 km/h 93% 0 mm 0 W/m2
23:50 12.2 °C 11.1 °C 1025.6 hPa North 8 km/h 14.5 km/h 93% 0 mm 0 W/m2
Knjazevac, Serbia
Compliments of Weather Underground - 2 mb